Time;durP1;ratioP1;P1;durP2;ratioP2;P2;SDS_P1;SDS_P2;PMS_P1;PMS_P2;Temp;Humidity;BMP_temperature;BMP_pressure;BME280_temperature;BME280_humidity;BME280_pressure;Samples;Min_cycle;Max_cycle;Signal;HPM_P1;HPM_P2
2023/05/19 00:00:59;;;;;;;9.85;2.17;;;;;;;18.47;36.35;102307.44;4983537;28;20475;-67
2023/05/19 00:03:26;;;;;;;4.00;1.90;;;;;;;18.41;36.36;102304.44;4987181;28;20043;-62
2023/05/19 00:05:52;;;;;;;5.82;2.08;;;;;;;18.37;35.96;102301.16;4977187;28;20034;-63
2023/05/19 00:08:18;;;;;;;2.83;1.90;;;;;;;18.34;36.40;102306.88;4976948;28;20530;-62
2023/05/19 00:10:44;;;;;;;4.75;2.03;;;;;;;18.29;36.71;102302.88;4977922;28;20479;-62
2023/05/19 00:13:10;;;;;;;7.47;2.15;;;;;;;18.23;36.77;102307.00;4977807;28;20023;-62
2023/05/19 00:15:35;;;;;;;4.25;1.90;;;;;;;18.16;36.98;102303.16;4976257;28;20495;-62
2023/05/19 00:18:01;;;;;;;6.05;2.60;;;;;;;18.11;36.87;102310.03;4976921;28;20415;-62
2023/05/19 00:20:26;;;;;;;10.38;2.00;;;;;;;18.00;36.16;102298.31;4976577;28;20027;-62
2023/05/19 00:22:52;;;;;;;3.85;2.60;;;;;;;18.01;36.94;102310.00;4976391;28;20479;-62
2023/05/19 00:25:17;;;;;;;15.57;1.98;;;;;;;17.99;37.46;102312.00;4975673;28;20027;-62
2023/05/19 00:27:42;;;;;;;2.45;1.77;;;;;;;17.95;37.07;102310.59;4975176;28;20045;-62
2023/05/19 00:30:08;;;;;;;3.05;1.52;;;;;;;17.88;37.15;102304.84;4959678;28;20122;-62
2023/05/19 00:32:34;;;;;;;4.28;1.67;;;;;;;17.85;36.95;102305.13;4976109;28;20039;-62
2023/05/19 00:34:59;;;;;;;6.32;1.70;;;;;;;17.80;36.74;102299.28;4975092;28;20043;-62
2023/05/19 00:37:25;;;;;;;4.45;1.90;;;;;;;17.78;36.97;102303.13;4976572;28;20027;-62
2023/05/19 00:39:50;;;;;;;8.80;1.83;;;;;;;17.68;37.29;102297.69;4974815;28;20035;-62
2023/05/19 00:42:16;;;;;;;4.30;1.58;;;;;;;17.63;36.62;102293.66;4976175;28;20557;-62
2023/05/19 00:44:41;;;;;;;3.78;1.83;;;;;;;17.56;36.54;102298.78;4955321;28;20086;-62
2023/05/19 00:47:07;;;;;;;4.55;2.05;;;;;;;17.50;37.31;102299.31;4960217;28;20026;-63
2023/05/19 00:49:33;;;;;;;3.65;1.52;;;;;;;17.43;37.17;102292.72;4974512;28;20406;-62
2023/05/19 00:52:00;;;;;;;6.70;2.95;;;;;;;17.42;37.48;102288.28;4975441;28;20030;-63
2023/05/19 00:54:26;;;;;;;3.78;1.83;;;;;;;17.39;37.93;102292.13;4954890;29;20114;-63
2023/05/19 00:56:52;;;;;;;4.40;1.80;;;;;;;17.37;38.38;102287.84;4966668;28;20153;-62
2023/05/19 00:59:18;;;;;;;4.95;1.85;;;;;;;17.33;37.75;102286.44;4974472;28;20055;-62
2023/05/19 01:01:47;;;;;;;4.00;1.55;;;;;;;17.33;38.13;102291.84;4959367;28;20070;-62
2023/05/19 01:04:15;;;;;;;14.27;3.15;;;;;;;17.31;37.16;102289.25;4959393;28;20031;-62
2023/05/19 01:06:41;;;;;;;3.15;1.70;;;;;;;17.31;37.32;102291.09;4958688;28;20042;-62
2023/05/19 01:09:07;;;;;;;5.93;2.50;;;;;;;17.28;37.61;102286.00;4974392;28;20398;-62
2023/05/19 01:11:33;;;;;;;6.38;1.90;;;;;;;17.28;37.79;102294.94;4975678;28;20411;-63
2023/05/19 01:13:59;;;;;;;5.65;2.40;;;;;;;17.27;37.30;102295.97;4974137;28;20023;-63
2023/05/19 01:16:36;;;;;;;4.65;1.85;;;;;;;17.22;38.00;102281.13;4974755;28;20031;-62
2023/05/19 01:19:19;;;;;;;3.83;1.77;;;;;;;17.19;38.14;102282.25;4974460;28;20402;-62
2023/05/19 01:22:21;;;;;;;5.43;2.30;;;;;;;17.17;37.42;102276.09;4975602;28;20502;-62
2023/05/19 01:24:53;;;;;;;7.32;1.83;;;;;;;17.14;38.38;102287.19;4974012;28;20042;-62
2023/05/19 01:27:28;;;;;;;5.85;1.63;;;;;;;17.10;37.89;102282.19;4974139;28;20069;-61
2023/05/19 01:30:15;;;;;;;3.72;1.70;;;;;;;17.07;37.23;102285.16;4974194;28;20031;-62
2023/05/19 01:32:40;;;;;;;7.50;1.52;;;;;;;17.01;38.28;102296.53;4975391;28;20129;-62
2023/05/19 01:35:08;;;;;;;2.15;1.65;;;;;;;16.93;37.81;102293.63;4957575;28;20463;-62
2023/05/19 01:37:35;;;;;;;1.77;1.50;;;;;;;16.86;37.31;102296.06;4973970;28;20034;-62
2023/05/19 01:40:01;;;;;;;2.95;1.42;;;;;;;16.79;37.64;102298.41;4958056;28;20027;-61
2023/05/19 01:42:26;;;;;;;3.58;1.38;;;;;;;16.73;37.87;102298.94;4973534;28;20045;-62
2023/05/19 01:44:52;;;;;;;3.72;1.52;;;;;;;16.67;38.29;102294.06;4952114;28;20057;-62
2023/05/19 01:47:18;;;;;;;3.15;1.60;;;;;;;16.63;37.96;102305.28;4979607;28;20027;-62
2023/05/19 01:49:43;;;;;;;3.20;1.80;;;;;;;16.57;37.66;102300.41;4974869;28;20085;-62
2023/05/19 01:52:09;;;;;;;5.78;1.98;;;;;;;16.50;38.92;102291.91;4974046;28;20460;-62
2023/05/19 01:54:34;;;;;;;3.33;1.95;;;;;;;16.41;37.76;102287.31;4970349;28;20495;-62
2023/05/19 01:57:05;;;;;;;5.80;1.80;;;;;;;16.41;37.76;102297.28;4966151;28;20038;-62
2023/05/19 01:59:37;;;;;;;5.50;2.13;;;;;;;16.37;38.29;102293.97;4957816;28;20463;-63
2023/05/19 02:02:14;;;;;;;18.58;2.40;;;;;;;16.31;39.29;102287.22;4973523;28;20031;-62
2023/05/19 02:04:47;;;;;;;3.42;2.15;;;;;;;16.31;39.53;102286.38;4973513;28;20027;-63
2023/05/19 02:07:16;;;;;;;1.80;1.70;;;;;;;16.27;38.36;102293.03;4957603;28;20035;-62
2023/05/19 02:09:58;;;;;;;10.20;1.70;;;;;;;16.24;38.62;102290.59;4973563;28;20037;-62
2023/05/19 02:12:33;;;;;;;4.43;1.92;;;;;;;16.18;38.16;102291.09;4975347;28;20051;-62
2023/05/19 02:15:22;;;;;;;7.18;1.80;;;;;;;16.12;38.55;102283.50;4973661;28;20031;-62
2023/05/19 02:17:50;;;;;;;4.40;2.63;;;;;;;16.05;39.24;102274.22;4973074;28;20031;-62
2023/05/19 02:20:16;;;;;;;4.15;1.80;;;;;;;16.03;38.76;102276.16;4973244;28;20034;-63
2023/05/19 02:22:42;;;;;;;4.47;1.58;;;;;;;15.99;39.68;102277.44;4941605;28;20026;-61
2023/05/19 02:25:08;;;;;;;3.97;1.50;;;;;;;15.98;39.21;102278.41;4957534;28;20467;-62
2023/05/19 02:27:36;;;;;;;3.67;1.83;;;;;;;15.94;39.53;102271.56;4956885;28;20058;-62
2023/05/19 02:30:05;;;;;;;8.00;2.15;;;;;;;15.92;39.42;102270.81;4956993;28;20407;-62
2023/05/19 02:32:31;;;;;;;2.30;1.65;;;;;;;15.88;38.95;102266.66;4953959;29;20032;-61
2023/05/19 02:34:57;;;;;;;3.08;1.65;;;;;;;15.83;39.52;102274.31;4958788;28;20038;-62
2023/05/19 02:37:24;;;;;;;3.47;1.70;;;;;;;15.77;38.58;102269.41;4973599;28;20031;-62
2023/05/19 02:39:49;;;;;;;7.20;2.08;;;;;;;15.71;39.70;102263.53;4956949;28;20114;-62
2023/05/19 02:42:17;;;;;;;2.42;1.60;;;;;;;15.70;38.79;102269.91;4956899;28;20457;-62
2023/05/19 02:44:42;;;;;;;3.33;1.73;;;;;;;15.67;40.11;102267.44;4972963;28;20045;-61
2023/05/19 02:47:08;;;;;;;3.47;1.80;;;;;;;15.65;39.69;102266.72;4974305;28;20503;-62
2023/05/19 02:49:36;;;;;;;5.07;2.53;;;;;;;15.61;39.63;102262.56;4973000;28;20478;-62
2023/05/19 02:52:05;;;;;;;2.50;2.30;;;;;;;15.59;38.94;102269.94;4974371;28;20023;-61
2023/05/19 02:54:31;;;;;;;3.15;1.60;;;;;;;15.54;39.75;102271.28;4969498;28;20044;-61
2023/05/19 02:56:57;;;;;;;4.95;2.20;;;;;;;15.52;39.11;102271.41;4965242;28;20054;-62
2023/05/19 02:59:23;;;;;;;10.52;1.92;;;;;;;15.48;40.14;102274.50;4972973;28;20031;-62
2023/05/19 03:01:49;;;;;;;6.97;2.92;;;;;;;15.44;39.33;102273.84;4957104;28;20446;-61
2023/05/19 03:04:15;;;;;;;2.35;1.55;;;;;;;15.38;40.07;102268.94;4973102;28;20494;-61
2023/05/19 03:06:41;;;;;;;3.00;2.08;;;;;;;15.38;39.60;102274.34;4972645;28;20035;-62
2023/05/19 03:09:06;;;;;;;8.50;1.98;;;;;;;15.36;40.26;102279.00;4975502;28;20047;-62
2023/05/19 03:11:32;;;;;;;9.57;1.98;;;;;;;15.31;39.98;102266.88;4976634;28;20487;-63
2023/05/19 03:13:57;;;;;;;3.75;1.80;;;;;;;15.27;40.93;102270.81;4976527;28;20042;-61
2023/05/19 03:16:23;;;;;;;7.00;2.30;;;;;;;15.21;39.68;102266.78;4977161;28;20049;-61
2023/05/19 03:18:48;;;;;;;4.57;2.13;;;;;;;15.17;39.65;102262.59;4977330;28;20126;-62
2023/05/19 03:21:14;;;;;;;3.05;1.83;;;;;;;15.17;40.00;102265.28;4976273;28;20514;-61
2023/05/19 03:23:39;;;;;;;3.42;2.00;;;;;;;15.13;40.09;102264.66;4977569;28;20039;-62
2023/05/19 03:26:05;;;;;;;2.97;2.05;;;;;;;15.12;40.00;102265.66;4976191;28;20465;-62
2023/05/19 03:28:30;;;;;;;2.40;2.17;;;;;;;15.09;39.78;102262.34;4960066;28;20050;-62
2023/05/19 03:30:55;;;;;;;6.93;2.50;;;;;;;15.05;39.48;102268.97;4960478;28;20033;-62
2023/05/19 03:33:22;;;;;;;3.63;2.03;;;;;;;15.01;40.36;102265.66;4977426;28;20558;-62
2023/05/19 03:35:48;;;;;;;5.05;2.03;;;;;;;14.99;39.64;102274.88;4976155;28;20038;-62
2023/05/19 03:38:13;;;;;;;6.40;2.53;;;;;;;14.94;40.76;102274.34;4976336;28;20042;-62
2023/05/19 03:40:40;;;;;;;7.07;2.30;;;;;;;14.92;40.12;102277.19;4976217;28;20035;-62
2023/05/19 03:43:06;;;;;;;4.70;2.40;;;;;;;14.90;40.69;102276.47;4978274;28;20062;-62
2023/05/19 03:45:31;;;;;;;7.60;2.53;;;;;;;14.86;41.26;102282.19;4976406;28;20461;-62
2023/05/19 03:47:56;;;;;;;6.82;2.10;;;;;;;14.84;40.46;102276.06;4976971;28;20039;-62
2023/05/19 03:50:22;;;;;;;5.10;2.38;;;;;;;14.83;41.17;102277.03;4976969;28;20093;-62
2023/05/19 03:52:47;;;;;;;6.35;2.35;;;;;;;14.81;41.30;102273.63;4977512;28;20371;-62
2023/05/19 03:55:18;;;;;;;2.25;2.05;;;;;;;14.78;41.02;102282.81;4977657;28;20043;-62
2023/05/19 03:57:44;;;;;;;4.97;2.03;;;;;;;14.75;40.78;102268.69;4975674;28;20105;-62
2023/05/19 04:00:11;;;;;;;2.90;2.17;;;;;;;14.72;41.25;102282.44;4976805;28;20030;-61
2023/05/19 04:02:36;;;;;;;7.68;2.42;;;;;;;14.68;41.47;102284.53;4975795;28;20069;-62
2023/05/19 04:05:03;;;;;;;6.18;3.35;;;;;;;14.68;41.50;102294.44;4976945;28;20054;-61
2023/05/19 04:07:29;;;;;;;6.60;2.35;;;;;;;14.65;41.04;102281.19;4976636;28;20030;-61
2023/05/19 04:09:55;;;;;;;7.95;2.42;;;;;;;14.68;41.38;102289.06;4978563;28;20089;-61
2023/05/19 04:12:20;;;;;;;3.20;2.28;;;;;;;14.65;41.48;102278.50;4976939;28;20078;-62
2023/05/19 04:14:46;;;;;;;6.28;2.75;;;;;;;14.68;41.54;102289.94;4976213;28;20035;-62
2023/05/19 04:17:11;;;;;;;7.00;2.40;;;;;;;14.67;40.69;102287.31;4975809;28;20086;-62
2023/05/19 04:19:37;;;;;;;5.63;2.90;;;;;;;14.72;40.94;102302.16;4975137;28;20406;-62
2023/05/19 04:22:02;;;;;;;5.68;3.13;;;;;;;14.72;41.63;102302.16;4975281;28;20038;-62
2023/05/19 04:24:27;;;;;;;6.65;2.58;;;;;;;14.74;40.97;102304.78;4976628;28;20031;-62
2023/05/19 04:26:53;;;;;;;5.60;2.55;;;;;;;14.78;41.11;102301.69;4977005;28;20102;-62
2023/05/19 04:29:19;;;;;;;8.48;2.95;;;;;;;14.76;41.17;102292.00;4976859;28;20034;-62
2023/05/19 04:31:44;;;;;;;4.97;2.78;;;;;;;14.87;41.95;102300.13;4976641;28;20090;-61
2023/05/19 04:34:10;;;;;;;5.50;2.83;;;;;;;14.92;42.05;102309.56;4976216;28;20034;-62
2023/05/19 04:36:36;;;;;;;8.45;2.85;;;;;;;14.98;41.06;102308.22;4977004;28;20039;-62
2023/05/19 04:39:05;;;;;;;7.07;3.33;;;;;;;15.07;41.94;102310.19;4974823;28;20035;-62
2023/05/19 04:41:32;;;;;;;5.32;2.85;;;;;;;15.15;40.75;102305.06;4975855;28;20125;-61
2023/05/19 04:43:58;;;;;;;6.53;3.63;;;;;;;15.25;40.85;102303.31;4959360;28;20026;-62
2023/05/19 04:46:24;;;;;;;8.35;3.45;;;;;;;15.32;42.31;102296.47;4975949;28;20084;-62
2023/05/19 04:48:50;;;;;;;8.60;3.42;;;;;;;15.35;41.58;102304.31;4975786;28;20046;-62
2023/05/19 04:51:16;;;;;;;3.83;2.85;;;;;;;15.36;41.71;102300.63;4975652;28;20122;-62
2023/05/19 04:53:42;;;;;;;6.55;2.90;;;;;;;15.41;42.97;102297.56;4976941;28;20038;-62
2023/05/19 04:56:08;;;;;;;11.15;3.42;;;;;;;15.55;41.73;102292.75;4978971;28;20039;-61
2023/05/19 04:58:33;;;;;;;5.25;3.17;;;;;;;15.66;41.87;102290.03;4962521;28;20045;-62
2023/05/19 05:00:59;;;;;;;7.93;2.97;;;;;;;15.78;42.85;102290.00;4962204;28;20026;-63
2023/05/19 05:03:26;;;;;;;10.13;3.40;;;;;;;15.89;41.70;102292.69;4982333;28;20030;-62
2023/05/19 05:05:51;;;;;;;9.68;3.00;;;;;;;15.98;42.15;102273.88;4959360;28;20050;-62
2023/05/19 05:08:22;;;;;;;8.23;3.10;;;;;;;16.10;41.77;102282.78;4942628;28;20461;-62
2023/05/19 05:10:51;;;;;;;12.20;3.28;;;;;;;16.14;42.61;102276.97;4974746;28;20126;-62
2023/05/19 05:13:17;;;;;;;9.07;3.75;;;;;;;16.30;42.67;102290.09;4974901;28;20076;-62
2023/05/19 05:15:43;;;;;;;11.10;3.75;;;;;;;16.38;41.01;102284.00;4958226;28;20418;-62
2023/05/19 05:18:09;;;;;;;9.70;3.55;;;;;;;16.39;42.00;102283.88;4974753;28;20042;-62
2023/05/19 05:20:34;;;;;;;5.70;3.15;;;;;;;16.49;41.67;102290.22;4959141;28;20509;-62
2023/05/19 05:23:00;;;;;;;15.07;4.05;;;;;;;16.60;42.74;102297.44;4975008;28;20034;-62
2023/05/19 05:25:26;;;;;;;7.50;3.42;;;;;;;16.56;42.68;102288.72;4991753;28;20045;-63
2023/05/19 05:27:52;;;;;;;10.23;3.78;;;;;;;16.49;42.11;102295.63;4978799;28;20414;-62
2023/05/19 05:30:17;;;;;;;8.85;3.80;;;;;;;16.49;42.94;102294.75;4960035;28;20038;-62
2023/05/19 05:32:43;;;;;;;11.07;3.88;;;;;;;16.47;42.85;102297.59;4958863;28;20405;-62
2023/05/19 05:35:08;;;;;;;9.38;4.00;;;;;;;16.55;41.56;102281.63;4978065;28;20035;-63
2023/05/19 05:37:34;;;;;;;10.55;3.97;;;;;;;16.88;40.69;102284.09;4978845;28;20031;-62
2023/05/19 05:40:03;;;;;;;7.43;3.65;;;;;;;17.11;41.67;102278.50;4964316;28;20054;-63
2023/05/19 05:42:28;;;;;;;13.45;3.53;;;;;;;17.31;40.69;102273.00;4960898;28;20039;-62
2023/05/19 05:44:54;;;;;;;9.05;4.10;;;;;;;17.54;41.49;102268.25;4976558;28;20525;-64
2023/05/19 05:47:19;;;;;;;7.80;3.92;;;;;;;17.72;40.56;102272.03;4958359;28;20063;-62
2023/05/19 05:49:47;;;;;;;7.60;4.13;;;;;;;17.92;40.53;102272.91;4973629;28;20030;-62
2023/05/19 05:52:13;;;;;;;10.23;3.63;;;;;;;18.10;40.82;102275.75;4994585;28;20505;-69
2023/05/19 05:54:38;;;;;;;5.47;3.85;;;;;;;18.27;40.53;102281.31;4989694;28;20034;-62
2023/05/19 05:57:04;;;;;;;7.28;4.90;;;;;;;18.33;41.07;102274.47;4972576;28;20118;-63
2023/05/19 05:59:30;;;;;;;8.48;4.10;;;;;;;18.46;41.04;102277.72;4973393;28;20101;-62
2023/05/19 06:01:55;;;;;;;9.55;4.53;;;;;;;18.63;40.81;102279.75;4939007;28;20062;-63
2023/05/19 06:04:20;;;;;;;7.85;4.03;;;;;;;18.74;40.65;102281.41;4956401;28;20023;-65
2023/05/19 06:06:46;;;;;;;8.07;4.18;;;;;;;18.87;40.50;102281.97;4971989;28;20035;-62
2023/05/19 06:09:11;;;;;;;8.02;3.90;;;;;;;18.99;40.16;102284.34;4973417;28;20046;-62
2023/05/19 06:11:36;;;;;;;15.25;4.30;;;;;;;19.12;40.14;102287.59;4973441;28;20043;-62
2023/05/19 06:14:02;;;;;;;10.75;3.90;;;;;;;19.23;39.63;102285.69;4953841;28;20032;-62
2023/05/19 06:16:27;;;;;;;8.68;3.53;;;;;;;19.28;40.41;102283.38;4955686;28;20026;-62
2023/05/19 06:18:53;;;;;;;10.88;3.83;;;;;;;19.28;40.51;102288.81;4955620;28;20042;-64
2023/05/19 06:21:18;;;;;;;10.35;3.72;;;;;;;19.43;40.10;102284.66;4971590;28;20031;-62
2023/05/19 06:23:43;;;;;;;9.25;3.58;;;;;;;19.64;40.11;102277.06;4955390;28;20117;-63
2023/05/19 06:26:09;;;;;;;10.48;4.20;;;;;;;19.80;39.50;102279.97;4971888;28;20496;-62
2023/05/19 06:28:35;;;;;;;10.20;3.42;;;;;;;19.92;39.96;102270.59;4971466;28;20058;-62
2023/05/19 06:31:00;;;;;;;8.38;3.67;;;;;;;19.91;39.73;102278.88;4955661;28;20098;-62
2023/05/19 06:33:25;;;;;;;5.95;3.55;;;;;;;19.96;39.87;102282.84;4972703;28;20038;-62
2023/05/19 06:35:51;;;;;;;8.32;3.20;;;;;;;20.15;39.46;102266.41;4955327;28;20034;-63
2023/05/19 06:38:16;;;;;;;5.30;3.45;;;;;;;20.38;38.86;102277.66;4971346;28;20434;-62
2023/05/19 06:40:42;;;;;;;16.98;4.47;;;;;;;20.56;38.87;102274.91;4972747;28;20034;-62
2023/05/19 06:43:07;;;;;;;8.48;4.20;;;;;;;20.73;38.59;102272.16;4971262;28;20027;-62
2023/05/19 06:45:33;;;;;;;5.90;3.42;;;;;;;20.86;38.83;102264.41;4971332;28;20089;-63
2023/05/19 06:47:59;;;;;;;9.68;3.00;;;;;;;21.05;38.74;102266.03;4972361;28;20026;-62
2023/05/19 06:50:24;;;;;;;7.60;3.53;;;;;;;21.20;38.09;102267.19;4954957;28;20067;-62
2023/05/19 06:52:50;;;;;;;11.05;3.38;;;;;;;21.31;38.03;102274.19;4972781;28;20038;-63
2023/05/19 06:55:15;;;;;;;8.95;3.63;;;;;;;21.48;38.60;102265.94;4954835;28;20038;-62
2023/05/19 06:57:41;;;;;;;10.07;4.15;;;;;;;21.68;37.69;102268.38;4971324;28;20027;-63
2023/05/19 07:00:10;;;;;;;6.38;3.28;;;;;;;21.81;37.49;102271.47;4971238;28;20565;-63
2023/05/19 07:02:35;;;;;;;7.53;2.97;;;;;;;21.95;37.64;102270.84;4971876;28;20027;-62
2023/05/19 07:05:01;;;;;;;8.82;3.53;;;;;;;22.11;37.14;102272.75;4956826;28;20034;-63
2023/05/19 07:07:26;;;;;;;4.28;2.70;;;;;;;22.27;37.82;102273.63;4974679;28;20483;-63
2023/05/19 07:09:51;;;;;;;6.90;3.33;;;;;;;22.41;36.96;102267.50;4972863;28;20117;-62
2023/05/19 07:12:17;;;;;;;5.75;3.38;;;;;;;22.58;36.67;102273.78;4957190;28;20073;-63
2023/05/19 07:14:42;;;;;;;12.10;2.97;;;;;;;22.72;36.96;102269.53;4973213;28;20107;-64
2023/05/19 07:17:08;;;;;;;7.65;3.47;;;;;;;22.83;37.13;102270.03;4956640;28;20049;-63
2023/05/19 07:19:33;;;;;;;9.07;3.28;;;;;;;22.99;37.26;102272.72;4956874;28;20074;-64
2023/05/19 07:21:58;;;;;;;7.50;3.15;;;;;;;23.15;36.08;102260.88;4973204;28;20118;-63
2023/05/19 07:24:26;;;;;;;6.85;2.67;;;;;;;23.30;37.09;102261.84;4956828;28;20513;-63
2023/05/19 07:26:51;;;;;;;10.13;2.78;;;;;;;23.46;36.74;102264.53;4956958;28;20111;-65
2023/05/19 07:29:17;;;;;;;6.50;2.90;;;;;;;23.62;35.67;102261.72;4952670;29;20043;-63
2023/05/19 07:31:42;;;;;;;6.03;2.60;;;;;;;23.76;36.03;102262.81;4953140;28;20117;-63
2023/05/19 07:34:13;;;;;;;8.10;3.20;;;;;;;23.95;35.49;102264.25;4937511;29;20062;-64
2023/05/19 07:36:38;;;;;;;8.95;3.60;;;;;;;24.10;35.10;102267.94;4953266;28;20410;-64
2023/05/19 07:39:04;;;;;;;6.13;2.80;;;;;;;24.25;35.44;102263.38;4937217;29;20122;-64
2023/05/19 07:41:30;;;;;;;9.85;3.25;;;;;;;24.38;35.69;102271.81;4953262;28;20035;-64
2023/05/19 07:43:55;;;;;;;8.77;3.67;;;;;;;24.54;35.33;102266.19;4953427;28;20055;-64
2023/05/19 07:46:21;;;;;;;10.93;3.30;;;;;;;24.69;34.78;102264.34;4953904;29;20034;-64
2023/05/19 07:48:46;;;;;;;9.75;3.08;;;;;;;24.83;34.75;102260.81;4937228;29;20118;-64
2023/05/19 07:51:12;;;;;;;11.23;3.63;;;;;;;24.95;34.41;102252.97;4969100;28;20424;-65
2023/05/19 07:53:37;;;;;;;9.52;2.97;;;;;;;25.06;34.25;102257.97;4953060;28;20035;-64
2023/05/19 07:56:03;;;;;;;8.95;2.85;;;;;;;25.21;34.12;102266.22;4940031;29;20093;-64
2023/05/19 07:58:28;;;;;;;4.55;2.05;;;;;;;25.34;33.46;102259.00;4957052;28;20069;-64
2023/05/19 08:00:57;;;;;;;8.50;3.17;;;;;;;25.45;33.62;102261.25;4957057;29;20042;-64
2023/05/19 08:03:23;;;;;;;5.63;2.55;;;;;;;25.56;33.69;102257.19;4972888;28;20401;-64
2023/05/19 08:05:49;;;;;;;6.82;3.05;;;;;;;25.66;33.79;102262.38;4972924;28;20042;-64
2023/05/19 08:08:18;;;;;;;4.72;2.53;;;;;;;25.82;33.25;102257.53;4956451;28;20031;-64
2023/05/19 08:10:44;;;;;;;7.82;3.33;;;;;;;25.96;33.60;102259.34;4972490;28;20106;-64
2023/05/19 08:13:09;;;;;;;6.55;3.17;;;;;;;26.08;33.19;102256.06;4957278;29;20079;-65
2023/05/19 08:15:35;;;;;;;9.52;2.55;;;;;;;26.22;32.75;102258.78;4956696;28;20039;-64
2023/05/19 08:18:02;;;;;;;6.15;2.28;;;;;;;26.32;33.33;102258.47;4956407;28;20582;-65
2023/05/19 08:20:27;;;;;;;6.90;2.70;;;;;;;26.40;32.25;102256.44;4956812;29;20388;-65
2023/05/19 08:22:52;;;;;;;6.15;1.88;;;;;;;26.49;32.20;102254.41;4956228;29;20038;-64
2023/05/19 08:25:18;;;;;;;9.43;2.75;;;;;;;26.61;32.67;102253.63;4958025;28;20059;-64
2023/05/19 08:27:44;;;;;;;6.07;2.10;;;;;;;26.71;32.12;102236.81;4956358;29;20415;-65
2023/05/19 08:30:12;;;;;;;9.90;2.30;;;;;;;26.86;31.59;102242.19;4940371;28;20031;-64
2023/05/19 08:32:37;;;;;;;6.90;2.35;;;;;;;26.96;31.42;102240.81;4956317;29;20039;-64
2023/05/19 08:35:03;;;;;;;7.97;2.92;;;;;;;27.08;31.92;102233.66;4956061;29;20114;-64
2023/05/19 08:37:29;;;;;;;5.80;2.13;;;;;;;27.17;31.35;102237.97;4939900;28;20035;-64
2023/05/19 08:39:56;;;;;;;4.53;1.80;;;;;;;27.30;31.40;102226.19;4956825;29;20031;-64
2023/05/19 08:42:21;;;;;;;5.65;2.45;;;;;;;27.44;31.04;102221.59;4956127;28;20036;-65
2023/05/19 08:44:48;;;;;;;6.47;2.88;;;;;;;27.55;30.62;102212.75;4957054;28;20102;-65
2023/05/19 08:47:14;;;;;;;4.22;1.92;;;;;;;27.65;31.35;102207.69;4955671;29;20059;-65
2023/05/19 08:49:44;;;;;;;7.05;2.65;;;;;;;27.78;31.07;102202.19;4955761;28;20167;-64
2023/05/19 08:52:19;;;;;;;7.32;1.90;;;;;;;27.91;30.62;102199.47;4940605;29;20483;-64
2023/05/19 08:54:49;;;;;;;6.93;2.20;;;;;;;28.03;30.24;102199.75;4955568;28;20039;-64
2023/05/19 08:57:15;;;;;;;5.70;2.58;;;;;;;28.13;29.88;102198.25;4955571;29;20043;-64
2023/05/19 08:59:42;;;;;;;7.18;2.30;;;;;;;28.23;29.68;102190.41;4971660;28;20525;-65
2023/05/19 09:02:08;;;;;;;6.20;2.00;;;;;;;28.36;30.02;102192.34;4971914;28;20055;-65
2023/05/19 09:04:34;;;;;;;10.00;3.05;;;;;;;28.43;28.98;102181.28;4955789;28;20027;-65
2023/05/19 09:07:02;;;;;;;8.10;2.20;;;;;;;28.51;29.84;102179.16;4956726;28;20070;-64
2023/05/19 09:09:29;;;;;;;5.43;1.88;;;;;;;28.58;30.00;102182.75;4955288;29;20118;-65
2023/05/19 09:11:54;;;;;;;4.80;1.60;;;;;;;28.69;29.49;102179.38;4955144;29;20070;-65
2023/05/19 09:14:20;;;;;;;3.63;1.70;;;;;;;28.75;29.36;102164.72;4954939;29;20414;-65
2023/05/19 09:16:49;;;;;;;8.85;1.95;;;;;;;28.84;29.05;102173.59;4939271;28;20043;-65
2023/05/19 09:19:15;;;;;;;6.63;2.20;;;;;;;28.90;28.42;102169.97;4956024;29;20035;-65
2023/05/19 09:21:41;;;;;;;5.15;1.50;;;;;;;28.99;28.26;102168.66;4971288;28;20035;-65
2023/05/19 09:24:08;;;;;;;7.15;1.80;;;;;;;29.08;28.47;102166.50;4960628;28;20037;-65
2023/05/19 09:26:40;;;;;;;6.57;1.65;;;;;;;29.16;28.13;102175.41;4974236;28;20035;-65
2023/05/19 09:29:14;;;;;;;6.82;1.52;;;;;;;29.21;27.53;102172.81;4957825;28;20114;-65
2023/05/19 09:31:48;;;;;;;5.82;1.75;;;;;;;29.25;28.09;102165.84;4990227;28;20023;-65
2023/05/19 09:34:14;;;;;;;8.15;1.55;;;;;;;29.32;27.72;102163.88;4974498;28;20046;-66
2023/05/19 09:36:41;;;;;;;46.47;3.97;;;;;;;29.40;27.38;102166.38;4958143;28;20034;-67
2023/05/19 09:39:16;;;;;;;3.88;1.70;;;;;;;29.48;26.79;102172.72;4975834;28;20054;-66
2023/05/19 09:41:42;;;;;;;4.38;1.75;;;;;;;29.50;27.70;102160.38;4975577;28;20027;-66
2023/05/19 09:44:12;;;;;;;4.20;1.60;;;;;;;29.59;27.55;102158.22;4960431;28;20038;-65
2023/05/19 09:46:37;;;;;;;6.43;1.85;;;;;;;29.71;27.47;102167.47;4991528;28;20073;-66
2023/05/19 09:49:09;;;;;;;7.50;1.58;;;;;;;29.76;27.40;102151.09;5009139;28;20387;-67
2023/05/19 09:51:40;;;;;;;3.60;1.50;;;;;;;29.87;26.89;102147.63;4956783;29;20070;-67
2023/05/19 09:54:08;;;;;;;3.10;1.60;;;;;;;29.97;27.54;102146.06;4956749;29;20043;-66
2023/05/19 09:56:34;;;;;;;4.45;1.55;;;;;;;30.12;26.99;102151.25;4958359;28;20237;-67
2023/05/19 09:59:03;;;;;;;5.55;1.60;;;;;;;30.17;27.09;102150.56;4955984;29;20380;-67
2023/05/19 10:01:30;;;;;;;6.40;1.88;;;;;;;30.24;26.57;102146.66;4955949;28;20035;-67
2023/05/19 10:03:56;;;;;;;4.35;1.55;;;;;;;30.32;27.08;102159.38;4973171;28;20023;-67
2023/05/19 10:06:21;;;;;;;4.95;1.85;;;;;;;30.41;26.82;102147.81;4958691;29;20545;-67
2023/05/19 10:08:49;;;;;;;6.45;1.85;;;;;;;30.53;26.09;102150.66;4961852;28;20038;-67
2023/05/19 10:11:16;;;;;;;4.63;1.60;;;;;;;30.61;26.74;102144.84;4963502;29;20062;-67
2023/05/19 10:13:42;;;;;;;8.35;1.60;;;;;;;30.71;26.33;102147.91;4961033;28;20035;-67
2023/05/19 10:16:08;;;;;;;7.07;1.50;;;;;;;30.61;26.21;102153.13;4972314;28;20035;-67
2023/05/19 10:18:34;;;;;;;4.82;1.92;;;;;;;30.81;26.53;102148.22;4955429;28;20054;-67
2023/05/19 10:21:00;;;;;;;7.25;2.20;;;;;;;30.76;26.48;102147.22;4956653;28;20518;-67
2023/05/19 10:23:25;;;;;;;4.47;1.52;;;;;;;30.80;25.90;102146.53;4954508;28;20040;-67
2023/05/19 10:25:55;;;;;;;7.35;1.38;;;;;;;31.06;26.21;102137.09;4954191;28;20396;-67
2023/05/19 10:28:24;;;;;;;6.78;1.67;;;;;;;31.17;25.58;102141.00;4954310;29;20038;-67
2023/05/19 10:30:50;;;;;;;6.43;1.80;;;;;;;31.30;25.86;102138.03;4953924;28;20035;-67
2023/05/19 10:33:17;;;;;;;9.75;1.70;;;;;;;31.42;25.45;102134.25;4953989;28;20110;-67
2023/05/19 10:36:07;;;;;;;1.95;1.20;;;;;;;31.62;25.43;102120.97;4969839;28;20070;-68
2023/05/19 10:38:44;;;;;;;3.72;1.48;;;;;;;31.86;25.64;102130.19;4955342;28;20065;-69
2023/05/19 10:41:23;;;;;;;4.75;1.30;;;;;;;32.01;24.80;102133.38;4955261;28;20554;-68
2023/05/19 10:44:08;;;;;;;5.47;1.10;;;;;;;32.19;24.79;102119.38;4970225;28;20150;-66
2023/05/19 10:46:35;;;;;;;1.80;0.93;;;;;;;31.94;25.07;102117.91;4969727;28;20024;-67
2023/05/19 10:49:00;;;;;;;7.88;1.10;;;;;;;32.19;24.80;102113.84;4970065;28;20027;-68
2023/05/19 10:51:32;;;;;;;3.33;1.20;;;;;;;32.39;24.64;102112.63;4958459;29;20026;-65
2023/05/19 10:54:01;;;;;;;3.47;1.13;;;;;;;32.46;24.43;102103.09;4969817;28;20495;-67
2023/05/19 10:56:35;;;;;;;2.20;0.88;;;;;;;32.59;24.18;102104.81;4953326;28;20036;-66
2023/05/19 10:59:02;;;;;;;8.60;1.42;;;;;;;32.75;23.92;102102.09;4953452;29;20038;-65
2023/05/19 11:01:34;;;;;;;5.57;1.00;;;;;;;32.86;23.78;102108.72;4953573;28;20430;-68
2023/05/19 11:04:14;;;;;;;3.22;1.00;;;;;;;33.03;23.14;102109.63;4954187;29;20479;-67
2023/05/19 11:06:40;;;;;;;4.68;1.08;;;;;;;33.14;23.97;102117.09;4968727;28;20508;-68
2023/05/19 11:09:17;;;;;;;4.70;1.02;;;;;;;33.17;23.03;102116.63;4969715;28;20035;-69
2023/05/19 11:11:50;;;;;;;3.70;1.15;;;;;;;33.25;22.64;102116.22;4953776;29;20118;-67
2023/05/19 11:14:25;;;;;;;5.30;1.33;;;;;;;33.37;23.32;102105.06;4951735;29;20032;-68
2023/05/19 11:16:52;;;;;;;2.40;1.20;;;;;;;33.31;22.91;102111.59;4953332;28;20031;-68
2023/05/19 11:19:27;;;;;;;3.75;1.05;;;;;;;32.71;23.89;102109.25;4954257;28;20027;-66
2023/05/19 11:21:56;;;;;;;3.20;1.10;;;;;;;33.29;23.08;102097.13;4954433;28;20058;-66
2023/05/19 11:24:45;;;;;;;3.08;0.90;;;;;;;33.65;22.14;102110.59;4938043;29;20031;-66